createdAt,value
2018-08-14T00:02:09.056Z,26.80
2018-08-14T00:04:40.978Z,26.80
2018-08-14T00:07:13.435Z,32.20
2018-08-14T00:09:45.225Z,24.40
2018-08-14T00:12:17.214Z,32.00
2018-08-14T00:14:49.175Z,30.40
2018-08-14T00:17:21.195Z,36.20
2018-08-14T00:19:52.836Z,38.00
2018-08-14T00:22:24.853Z,39.60
2018-08-14T00:24:56.612Z,38.00
2018-08-14T00:27:28.913Z,37.80
2018-08-14T00:30:01.045Z,29.80
2018-08-14T00:32:33.064Z,31.40
2018-08-14T00:35:05.523Z,27.20
2018-08-14T00:37:37.532Z,30.40
2018-08-14T00:40:12.169Z,29.60
2018-08-14T00:42:44.255Z,34.60
2018-08-14T00:45:18.455Z,37.80
2018-08-14T00:47:51.472Z,31.00
2018-08-14T00:50:23.756Z,37.40
2018-08-14T00:52:55.687Z,30.60
2018-08-14T00:55:27.641Z,28.80
2018-08-14T00:57:59.591Z,31.80
2018-08-14T01:00:34.987Z,34.20
2018-08-14T01:03:07.905Z,30.60
2018-08-14T01:05:40.144Z,32.20
2018-08-14T01:08:12.512Z,32.80
2018-08-14T01:10:45.353Z,33.60
2018-08-14T01:13:17.484Z,34.00
2018-08-14T01:15:49.470Z,33.80
2018-08-14T01:18:21.784Z,34.20
2018-08-14T01:20:54.428Z,28.40
2018-08-14T01:23:26.635Z,28.60
2018-08-14T01:25:58.786Z,30.80
2018-08-14T01:28:30.946Z,32.40
2018-08-14T01:31:02.737Z,30.20
2018-08-14T01:33:34.853Z,39.40
2018-08-14T01:36:06.707Z,38.40
2018-08-14T01:38:38.330Z,35.20
2018-08-14T01:41:10.459Z,32.00
2018-08-14T01:43:42.337Z,36.60
2018-08-14T01:46:14.296Z,35.00
2018-08-14T01:48:47.382Z,29.20
2018-08-14T01:51:19.980Z,31.80
2018-08-14T01:53:52.068Z,38.80
2018-08-14T01:56:24.074Z,36.60
2018-08-14T01:58:56.052Z,30.80
2018-08-14T02:01:27.820Z,32.40
2018-08-14T02:04:00.112Z,30.40
2018-08-14T02:06:32.195Z,29.60
2018-08-14T02:09:04.281Z,30.60
2018-08-14T02:11:36.394Z,29.00
2018-08-14T02:14:08.800Z,30.40
2018-08-14T02:16:40.414Z,25.00
2018-08-14T02:19:12.295Z,28.60
2018-08-14T02:21:44.691Z,30.60
2018-08-14T02:24:17.340Z,26.60
2018-08-14T02:26:48.877Z,39.60
2018-08-14T02:29:20.849Z,33.00
2018-08-14T02:31:53.054Z,36.80
2018-08-14T02:34:25.152Z,30.60
2018-08-14T02:36:57.153Z,28.80
2018-08-14T02:39:29.225Z,30.00
2018-08-14T02:42:01.096Z,30.20
2018-08-14T02:44:33.037Z,27.80
2018-08-14T02:47:04.844Z,34.80
2018-08-14T02:49:36.562Z,36.00
2018-08-14T02:52:09.569Z,41.40
2018-08-14T02:54:41.296Z,46.00
2018-08-14T02:57:13.131Z,36.40
2018-08-14T02:59:44.979Z,38.40
2018-08-14T03:02:16.893Z,38.20
2018-08-14T03:04:49.122Z,42.40
2018-08-14T03:07:21.263Z,21.00
2018-08-14T03:09:53.445Z,30.80
2018-08-14T03:12:25.185Z,31.60
2018-08-14T03:15:01.493Z,39.60
2018-08-14T03:17:33.489Z,32.60
2018-08-14T03:20:06.149Z,54.00
2018-08-14T03:22:38.572Z,48.20
2018-08-14T03:25:11.171Z,47.20
2018-08-14T03:27:43.070Z,42.60
2018-08-14T03:30:15.631Z,51.00
2018-08-14T03:32:47.616Z,43.40
2018-08-14T03:35:19.392Z,43.80
2018-08-14T03:37:51.406Z,48.40
2018-08-14T03:40:23.337Z,47.20
2018-08-14T03:42:55.174Z,53.80
2018-08-14T03:45:27.224Z,52.00
2018-08-14T03:48:00.055Z,49.00
2018-08-14T03:50:32.071Z,52.20
2018-08-14T03:53:03.755Z,49.40
2018-08-14T03:55:35.471Z,52.20
2018-08-14T03:58:07.743Z,57.20
2018-08-14T04:00:39.800Z,53.20
2018-08-14T04:03:11.639Z,55.00
2018-08-14T04:05:43.648Z,48.80
2018-08-14T04:08:15.496Z,49.60
2018-08-14T04:10:47.175Z,52.60
2018-08-14T04:13:19.008Z,50.00
2018-08-14T04:15:51.048Z,53.40
2018-08-14T04:18:23.401Z,53.00
2018-08-14T04:20:55.128Z,54.60
2018-08-14T04:23:26.859Z,50.60
2018-08-14T04:25:58.972Z,57.20
2018-08-14T04:28:30.760Z,52.20
2018-08-14T04:31:02.860Z,48.60
2018-08-14T04:33:34.662Z,51.80
2018-08-14T04:36:06.742Z,49.40
2018-08-14T04:38:38.676Z,55.40
2018-08-14T04:41:10.446Z,55.80
2018-08-14T04:43:42.150Z,57.60
2018-08-14T04:46:13.978Z,56.80
2018-08-14T04:48:45.894Z,51.80
2018-08-14T04:51:17.683Z,56.00
2018-08-14T04:53:50.160Z,54.00
2018-08-14T04:56:21.723Z,51.80
2018-08-14T04:58:53.404Z,50.80
2018-08-14T05:01:25.296Z,50.80
2018-08-14T05:03:57.009Z,59.00
2018-08-14T05:06:28.793Z,50.60
2018-08-14T05:09:00.360Z,49.80
2018-08-14T05:11:32.381Z,47.60
2018-08-14T05:14:04.108Z,54.40
2018-08-14T05:16:35.894Z,55.80
2018-08-14T05:19:07.535Z,54.60
2018-08-14T05:21:39.379Z,55.00
2018-08-14T05:24:10.931Z,52.80
2018-08-14T05:26:42.688Z,53.80
2018-08-14T05:29:14.278Z,52.80
2018-08-14T05:31:46.341Z,55.00
2018-08-14T05:34:18.028Z,51.40
2018-08-14T05:36:49.758Z,52.60
2018-08-14T05:39:21.613Z,51.80
2018-08-14T05:41:53.452Z,58.00
2018-08-14T05:44:26.389Z,53.20
2018-08-14T05:46:58.381Z,53.60
2018-08-14T05:49:30.095Z,54.00
2018-08-14T05:52:03.125Z,54.00
2018-08-14T05:54:35.842Z,51.40
2018-08-14T05:57:07.660Z,55.40
2018-08-14T05:59:39.501Z,52.60
2018-08-14T06:02:11.547Z,47.40
2018-08-14T06:04:43.866Z,50.20
2018-08-14T06:07:15.997Z,54.40
2018-08-14T06:09:47.814Z,48.40
2018-08-14T06:12:19.880Z,42.80
2018-08-14T06:14:52.081Z,47.00
2018-08-14T06:17:24.362Z,48.80
2018-08-14T06:19:56.436Z,49.00
2018-08-14T06:22:28.428Z,46.60
2018-08-14T06:25:00.215Z,49.80
2018-08-14T06:27:32.280Z,47.60
2018-08-14T06:30:04.040Z,50.40
2018-08-14T06:32:36.085Z,47.00
2018-08-14T06:35:07.834Z,47.80
2018-08-14T06:37:40.617Z,49.80
2018-08-14T06:40:14.519Z,48.00
2018-08-14T06:42:48.268Z,48.20
2018-08-14T06:45:21.410Z,46.00
2018-08-14T06:47:53.223Z,47.20
2018-08-14T06:50:25.199Z,49.00
2018-08-14T06:52:57.194Z,45.00
2018-08-14T06:55:29.044Z,44.20
2018-08-14T06:58:00.962Z,45.40
2018-08-14T07:00:32.586Z,45.20
2018-08-14T07:03:04.540Z,44.60
2018-08-14T07:05:36.309Z,46.80
2018-08-14T07:08:08.406Z,42.20
2018-08-14T07:10:40.104Z,47.00
2018-08-14T07:13:11.826Z,47.00
2018-08-14T07:15:43.890Z,46.60
2018-08-14T07:18:15.621Z,42.00
2018-08-14T07:20:47.534Z,48.00
2018-08-14T07:23:19.140Z,44.20
2018-08-14T07:25:50.898Z,46.60
2018-08-14T07:28:23.044Z,45.80
2018-08-14T07:30:54.656Z,41.80
2018-08-14T07:33:26.465Z,51.60
2018-08-14T07:35:58.350Z,48.40
2018-08-14T07:38:30.436Z,46.80
2018-08-14T07:41:01.832Z,47.40
2018-08-14T07:43:33.955Z,47.00
2018-08-14T07:46:05.508Z,48.80
2018-08-14T07:48:37.281Z,43.60
2018-08-14T07:51:09.759Z,47.00
2018-08-14T07:53:41.957Z,49.00
2018-08-14T07:56:14.102Z,51.00
2018-08-14T07:58:46.129Z,48.20
2018-08-14T08:01:18.323Z,43.20
2018-08-14T08:03:51.070Z,48.80
2018-08-14T08:06:22.952Z,45.00
2018-08-14T08:08:54.891Z,50.80
2018-08-14T08:11:26.507Z,50.20
2018-08-14T08:13:58.134Z,47.00
2018-08-14T08:16:29.958Z,49.40
2018-08-14T08:19:01.960Z,51.80
2018-08-14T08:21:33.904Z,49.80
2018-08-14T08:24:05.846Z,47.20
2018-08-14T08:26:37.627Z,48.80
2018-08-14T08:29:09.237Z,49.00
2018-08-14T08:31:41.362Z,49.00
2018-08-14T08:34:13.208Z,45.00
2018-08-14T08:36:45.126Z,47.20
2018-08-14T08:39:16.871Z,50.00
2018-08-14T08:41:48.801Z,44.60
2018-08-14T08:44:20.918Z,47.00
2018-08-14T08:46:53.891Z,44.80
2018-08-14T08:49:27.307Z,46.20
2018-08-14T08:52:00.213Z,44.20
2018-08-14T08:54:33.936Z,42.80
2018-08-14T08:57:08.620Z,41.60
2018-08-14T08:59:44.716Z,41.40
2018-08-14T09:02:20.890Z,43.80
2018-08-14T09:04:58.913Z,38.40
2018-08-14T09:07:35.842Z,36.80
2018-08-14T09:10:14.977Z,40.80
2018-08-14T09:12:52.195Z,40.60
2018-08-14T09:15:30.499Z,42.20
2018-08-14T09:18:06.220Z,38.40
2018-08-14T09:20:43.071Z,38.60
2018-08-14T09:23:18.959Z,36.80
2018-08-14T09:25:56.351Z,40.00
2018-08-14T09:28:32.546Z,38.20
2018-08-14T09:31:10.603Z,39.80
2018-08-14T09:33:46.325Z,39.40
2018-08-14T09:36:22.099Z,35.00
2018-08-14T09:38:55.208Z,35.40
2018-08-14T09:41:28.382Z,37.20
2018-08-14T09:44:02.309Z,37.40
2018-08-14T09:46:36.783Z,30.00
2018-08-14T09:49:11.083Z,33.20
2018-08-14T09:51:44.431Z,32.40
2018-08-14T09:54:19.080Z,36.40
2018-08-14T09:56:53.775Z,29.00
2018-08-14T09:59:29.107Z,35.80
2018-08-14T10:02:07.114Z,29.80
2018-08-14T10:04:46.763Z,36.80
2018-08-14T10:07:26.807Z,37.00
2018-08-14T10:10:02.079Z,36.60
2018-08-14T10:12:38.549Z,34.80
2018-08-14T10:15:14.748Z,36.00
2018-08-14T10:17:50.851Z,33.00
2018-08-14T10:20:25.500Z,35.80
2018-08-14T10:23:01.077Z,39.20
2018-08-14T10:25:33.548Z,38.00
2018-08-14T10:28:06.130Z,40.40
2018-08-14T10:30:39.916Z,42.00
2018-08-14T10:33:12.678Z,44.80
2018-08-14T10:35:44.753Z,37.20
2018-08-14T10:38:16.733Z,43.40
2018-08-14T10:40:48.715Z,43.00
2018-08-14T10:43:20.906Z,44.20
2018-08-14T10:45:52.852Z,37.80
2018-08-14T10:48:25.890Z,40.60
2018-08-14T10:50:59.017Z,43.80
2018-08-14T10:53:33.111Z,44.20
2018-08-14T10:56:07.125Z,42.80
2018-08-14T10:58:41.707Z,44.00
2018-08-14T11:01:16.987Z,36.40
2018-08-14T11:03:53.089Z,37.80
2018-08-14T11:06:26.631Z,38.60
2018-08-14T11:08:59.127Z,37.40
2018-08-14T11:11:32.448Z,38.60
2018-08-14T11:14:04.468Z,34.60
2018-08-14T11:16:36.656Z,36.40
2018-08-14T11:19:08.770Z,40.60
2018-08-14T11:21:40.781Z,36.40
2018-08-14T11:24:13.362Z,40.80
2018-08-14T11:26:45.034Z,38.80
2018-08-14T11:29:16.844Z,39.00
2018-08-14T11:31:48.918Z,43.20
2018-08-14T11:34:21.135Z,43.40
2018-08-14T11:36:53.139Z,56.00
2018-08-14T11:39:24.698Z,50.80
2018-08-14T11:41:56.467Z,53.40
2018-08-14T11:44:28.571Z,46.40
2018-08-14T11:47:00.565Z,56.20
2018-08-14T11:49:32.561Z,55.00
2018-08-14T11:52:04.452Z,53.00
2018-08-14T11:54:36.222Z,48.80
2018-08-14T11:57:07.893Z,50.40
2018-08-14T11:59:39.473Z,57.60
2018-08-14T12:02:12.620Z,55.00
2018-08-14T12:04:44.182Z,53.00
2018-08-14T12:07:15.756Z,52.40
2018-08-14T12:09:47.467Z,51.60
2018-08-14T12:12:18.946Z,55.00
2018-08-14T12:14:50.815Z,56.60
2018-08-14T12:17:22.747Z,52.40
2018-08-14T12:19:54.659Z,55.80
2018-08-14T12:22:26.461Z,57.80
2018-08-14T12:24:58.542Z,55.20
2018-08-14T12:27:30.121Z,56.20
2018-08-14T12:30:02.235Z,56.40
2018-08-14T12:32:34.089Z,60.40
2018-08-14T12:35:07.146Z,58.20
2018-08-14T12:37:38.975Z,60.60
2018-08-14T12:40:11.953Z,57.80
2018-08-14T12:42:44.307Z,59.60
2018-08-14T12:45:19.672Z,56.00
2018-08-14T12:47:52.101Z,54.00
2018-08-14T12:50:24.386Z,55.40
2018-08-14T12:52:56.131Z,57.00
2018-08-14T12:55:28.034Z,54.20
2018-08-14T12:58:00.183Z,55.00
2018-08-14T13:00:32.212Z,50.80
2018-08-14T13:03:04.981Z,54.40
2018-08-14T13:05:36.796Z,58.20
2018-08-14T13:08:08.205Z,50.00
2018-08-14T13:10:40.157Z,57.20
2018-08-14T13:13:11.995Z,59.60
2018-08-14T13:15:43.871Z,57.40
2018-08-14T13:18:15.902Z,57.80
2018-08-14T13:20:47.759Z,58.00
2018-08-14T13:23:19.448Z,63.00
2018-08-14T13:25:51.454Z,61.20
2018-08-14T13:28:23.284Z,62.20
2018-08-14T13:30:55.397Z,56.20
2018-08-14T13:33:27.168Z,56.80
2018-08-14T13:35:59.058Z,56.40
2018-08-14T13:38:30.937Z,52.40
2018-08-14T13:41:02.973Z,56.60
2018-08-14T13:43:34.725Z,53.80
2018-08-14T13:46:06.323Z,52.80
2018-08-14T13:48:38.276Z,50.80
2018-08-14T13:51:10.493Z,56.20
2018-08-14T13:53:42.439Z,56.40
2018-08-14T13:56:14.606Z,54.80
2018-08-14T13:58:46.154Z,54.20
2018-08-14T14:01:18.298Z,53.00
2018-08-14T14:03:50.381Z,56.00
2018-08-14T14:06:22.288Z,51.60
2018-08-14T14:08:53.509Z,49.20
2018-08-14T14:11:24.845Z,46.00
2018-08-14T14:13:56.586Z,49.20
2018-08-14T14:16:28.745Z,49.60
2018-08-14T14:19:00.648Z,51.40
2018-08-14T14:21:32.475Z,47.60
2018-08-14T14:24:04.610Z,45.40
2018-08-14T14:26:36.771Z,48.20
2018-08-14T14:29:08.659Z,48.40
2018-08-14T14:31:40.460Z,48.60
2018-08-14T14:34:12.363Z,49.40
2018-08-14T14:36:44.154Z,49.60
2018-08-14T14:39:15.853Z,45.80
2018-08-14T14:41:48.076Z,46.60
2018-08-14T14:44:19.829Z,47.00
2018-08-14T14:46:51.975Z,49.80
2018-08-14T14:49:23.736Z,50.00
2018-08-14T14:51:56.813Z,50.80
2018-08-14T14:54:28.871Z,50.40
2018-08-14T14:57:00.964Z,49.20
2018-08-14T14:59:32.987Z,49.40
2018-08-14T15:02:04.978Z,53.60
2018-08-14T15:04:37.958Z,52.60
2018-08-14T15:07:09.820Z,46.80
2018-08-14T15:09:41.571Z,49.00
2018-08-14T15:12:13.532Z,51.00
2018-08-14T15:14:45.288Z,52.00
2018-08-14T15:17:18.432Z,49.60
2018-08-14T15:19:50.669Z,51.40
2018-08-14T15:22:22.554Z,49.60
2018-08-14T15:24:54.003Z,47.60
2018-08-14T15:27:25.775Z,47.40
2018-08-14T15:30:02.572Z,46.20
2018-08-14T15:32:34.458Z,47.20
2018-08-14T15:35:06.490Z,43.40
2018-08-14T15:37:37.898Z,43.80
2018-08-14T15:40:09.628Z,43.60
2018-08-14T15:42:41.538Z,45.80
2018-08-14T15:45:13.216Z,44.80
2018-08-14T15:47:44.983Z,44.40
2018-08-14T15:50:16.912Z,42.40
2018-08-14T15:52:48.607Z,41.80
2018-08-14T15:55:20.632Z,43.40
2018-08-14T15:57:52.497Z,45.40
2018-08-14T16:00:24.161Z,34.40
2018-08-14T16:02:56.168Z,45.80
2018-08-14T16:05:28.714Z,41.20
2018-08-14T16:08:00.625Z,38.40
2018-08-14T16:10:32.436Z,43.80
2018-08-14T16:13:04.079Z,39.60
2018-08-14T16:15:35.741Z,37.00
2018-08-14T16:18:07.571Z,42.00
2018-08-14T16:20:39.484Z,40.20
2018-08-14T16:23:10.944Z,43.40
2018-08-14T16:25:42.717Z,41.60
2018-08-14T16:28:14.684Z,29.60
2018-08-14T16:30:46.753Z,35.00
2018-08-14T16:33:19.793Z,39.40
2018-08-14T16:35:51.671Z,38.40
2018-08-14T16:38:23.290Z,34.20
2018-08-14T16:40:54.947Z,36.40
2018-08-14T16:43:26.580Z,35.80
2018-08-14T16:45:58.340Z,30.20
2018-08-14T16:48:30.219Z,32.20
2018-08-14T16:51:02.090Z,35.40
2018-08-14T16:53:33.753Z,32.20
2018-08-14T16:56:05.619Z,37.20
2018-08-14T16:58:37.638Z,30.00
2018-08-14T17:01:09.475Z,37.40
2018-08-14T17:03:41.502Z,32.40
2018-08-14T17:06:14.065Z,27.00
2018-08-14T17:08:45.845Z,28.20
2018-08-14T17:11:17.345Z,29.00
2018-08-14T17:13:49.163Z,28.60
2018-08-14T17:16:20.884Z,30.00
2018-08-14T17:18:52.749Z,34.20
2018-08-14T17:21:21.900Z,24.00
2018-08-14T17:30:51.003Z,26.00
2018-08-14T17:33:22.768Z,30.40
2018-08-14T17:35:54.839Z,28.40
2018-08-14T17:38:26.586Z,27.80
2018-08-14T17:40:58.397Z,26.20
2018-08-14T17:43:30.019Z,29.20
2018-08-14T17:46:01.890Z,29.60
2018-08-14T17:48:33.756Z,24.60
2018-08-14T17:51:05.713Z,28.20
2018-08-14T17:53:37.741Z,25.00
2018-08-14T17:56:09.572Z,26.60
2018-08-14T17:58:41.289Z,21.80
2018-08-14T18:02:38.122Z,20.00
2018-08-14T18:05:10.434Z,24.20
2018-08-14T18:07:43.977Z,23.40
2018-08-14T18:10:18.248Z,22.20
2018-08-14T18:12:50.068Z,23.80
2018-08-14T18:15:22.535Z,18.20
2018-08-14T18:17:54.760Z,21.40
2018-08-14T18:20:26.878Z,23.00
2018-08-14T18:22:58.656Z,21.60
2018-08-14T18:25:30.291Z,21.20
2018-08-14T18:28:02.333Z,25.40
2018-08-14T18:30:34.052Z,27.20
2018-08-14T18:33:05.886Z,26.60
2018-08-14T18:35:37.603Z,22.40
2018-08-14T18:38:09.677Z,26.80
2018-08-14T18:40:41.496Z,17.20
2018-08-14T18:43:13.566Z,17.20
2018-08-14T18:45:45.183Z,21.60
2018-08-14T18:48:17.052Z,25.60
2018-08-14T18:50:48.569Z,21.40
2018-08-14T18:53:20.408Z,20.20
2018-08-14T18:55:52.067Z,25.40
2018-08-14T18:58:23.860Z,27.00
2018-08-14T19:00:56.509Z,30.20
2018-08-14T19:03:29.001Z,27.80
2018-08-14T19:06:03.366Z,26.20
2018-08-14T19:08:36.304Z,23.20
2018-08-14T19:11:08.180Z,23.40
2018-08-14T19:13:40.878Z,27.80
2018-08-14T19:16:14.057Z,31.00
2018-08-14T19:18:46.455Z,22.60
2018-08-14T19:21:19.427Z,27.20
2018-08-14T19:23:51.987Z,23.20
2018-08-14T19:26:26.492Z,25.20
2018-08-14T19:28:58.817Z,24.00
2018-08-14T19:31:33.276Z,26.20
2018-08-14T19:34:05.206Z,25.20
2018-08-14T19:36:37.196Z,26.60
2018-08-14T19:39:13.088Z,25.20
2018-08-14T19:41:45.179Z,27.60
2018-08-14T19:44:16.729Z,26.40
2018-08-14T19:46:48.554Z,25.60
2018-08-14T19:49:20.302Z,25.40
2018-08-14T19:51:52.738Z,26.00
2018-08-14T19:54:24.494Z,28.20
2018-08-14T19:56:56.364Z,20.60
2018-08-14T19:59:28.000Z,26.80
2018-08-14T20:01:59.671Z,24.80
2018-08-14T20:04:31.340Z,25.20
2018-08-14T20:07:03.203Z,24.40
2018-08-14T20:09:35.641Z,27.00
2018-08-14T20:12:07.326Z,26.00
2018-08-14T20:14:39.021Z,28.80
2018-08-14T20:17:10.906Z,25.40
2018-08-14T20:19:42.744Z,30.60
2018-08-14T20:22:18.710Z,37.00
2018-08-14T20:24:50.558Z,28.40
2018-08-14T20:27:22.465Z,27.00
2018-08-14T20:29:54.038Z,27.00
2018-08-14T20:32:25.904Z,33.80
2018-08-14T20:34:57.921Z,30.20
2018-08-14T20:37:29.657Z,35.00
2018-08-14T20:40:01.518Z,30.20
2018-08-14T20:42:33.351Z,30.20
2018-08-14T20:45:05.467Z,30.80
2018-08-14T20:47:37.229Z,33.20
2018-08-14T20:50:10.596Z,34.00
2018-08-14T20:52:42.519Z,32.60
2018-08-14T20:56:17.888Z,28.80
2018-08-14T20:58:49.563Z,31.00
2018-08-14T21:01:21.518Z,28.20
2018-08-14T21:03:53.428Z,30.20
2018-08-14T21:06:25.725Z,34.00
2018-08-14T21:08:57.484Z,28.60
2018-08-14T21:11:30.405Z,28.40
2018-08-14T21:14:02.137Z,26.00
2018-08-14T21:16:34.043Z,35.00
2018-08-14T21:19:05.712Z,36.60
2018-08-14T21:21:37.572Z,32.60
2018-08-14T21:24:09.288Z,34.00
2018-08-14T21:26:41.108Z,34.40
2018-08-14T21:29:12.971Z,30.00
2018-08-14T21:31:44.922Z,27.60
2018-08-14T21:34:16.494Z,31.60
2018-08-14T21:36:48.438Z,32.00
2018-08-14T21:39:20.178Z,29.40
2018-08-14T21:41:52.069Z,27.00
2018-08-14T21:44:23.949Z,25.80
2018-08-14T21:46:55.595Z,27.20
2018-08-14T21:49:27.149Z,25.80
2018-08-14T21:51:59.462Z,30.60
2018-08-14T21:54:31.342Z,31.60
2018-08-14T21:57:03.153Z,31.60
2018-08-14T21:59:34.812Z,35.20
2018-08-14T22:02:07.016Z,29.00
2018-08-14T22:04:38.795Z,28.20
2018-08-14T22:07:10.742Z,22.60
2018-08-14T22:09:42.335Z,30.60
2018-08-14T22:12:14.721Z,29.80
2018-08-14T22:14:46.654Z,25.80
2018-08-14T22:17:18.549Z,25.60
2018-08-14T22:19:50.378Z,29.60
2018-08-14T22:22:22.498Z,28.40
2018-08-14T22:24:54.376Z,26.80
2018-08-14T22:34:26.863Z,20.00
2018-08-14T22:36:58.769Z,27.20
2018-08-14T22:39:30.798Z,26.40
2018-08-14T22:42:02.585Z,25.00
2018-08-14T22:44:34.980Z,31.20
2018-08-14T22:47:06.844Z,28.60
2018-08-14T22:49:38.716Z,24.00
2018-08-14T22:52:10.347Z,28.20
2018-08-14T22:54:42.413Z,30.20
2018-08-14T22:57:14.157Z,27.60
2018-08-14T22:59:46.265Z,32.20
2018-08-14T23:02:18.141Z,28.40
2018-08-14T23:04:50.143Z,30.20
2018-08-14T23:07:21.822Z,32.80
2018-08-14T23:09:53.713Z,25.20
2018-08-14T23:12:26.602Z,27.60
2018-08-14T23:14:58.350Z,27.40
2018-08-14T23:17:30.220Z,25.20
2018-08-14T23:20:02.052Z,25.00
2018-08-14T23:22:34.086Z,26.80
2018-08-14T23:25:06.432Z,23.80
2018-08-14T23:27:38.290Z,28.00
2018-08-14T23:30:13.608Z,27.40
2018-08-14T23:32:46.002Z,26.60
2018-08-14T23:35:17.764Z,26.00
2018-08-14T23:37:49.413Z,25.60
2018-08-14T23:40:21.260Z,29.00
2018-08-14T23:42:52.936Z,29.00
2018-08-14T23:45:24.634Z,25.40
2018-08-14T23:47:56.552Z,27.00
2018-08-14T23:50:28.786Z,27.20
2018-08-14T23:53:00.588Z,30.40
2018-08-14T23:55:32.389Z,21.60
2018-08-14T23:58:04.076Z,27.00
